sensor_id;sensor_type;location;lat;lon;timestamp;P1;P2;P0
79038;PMS5003;68436;55.068;73.284;2023-05-10T00:00:52;106.75;90.25;59.00
79038;PMS5003;68436;55.068;73.284;2023-05-10T00:03:18;101.50;87.50;55.50
79038;PMS5003;68436;55.068;73.284;2023-05-10T00:05:44;108.00;92.50;58.50
79038;PMS5003;68436;55.068;73.284;2023-05-10T00:08:16;111.50;92.00;59.00
79038;PMS5003;68436;55.068;73.284;2023-05-10T00:10:43;115.75;96.00;62.00
79038;PMS5003;68436;55.068;73.284;2023-05-10T00:13:16;128.00;103.67;64.00
79038;PMS5003;68436;55.068;73.284;2023-05-10T00:15:43;115.50;98.25;62.00
79038;PMS5003;68436;55.068;73.284;2023-05-10T00:18:16;117.00;99.33;63.67
79038;PMS5003;68436;55.068;73.284;2023-05-10T00:20:43;111.00;94.00;60.50
79038;PMS5003;68436;55.068;73.284;2023-05-10T00:23:16;115.00;99.00;62.00
79038;PMS5003;68436;55.068;73.284;2023-05-10T00:25:42;122.25;102.75;64.75
79038;PMS5003;68436;55.068;73.284;2023-05-10T00:28:16;115.67;97.33;61.00
79038;PMS5003;68436;55.068;73.284;2023-05-10T00:31:02;115.50;99.25;62.25
79038;PMS5003;68436;55.068;73.284;2023-05-10T00:36:13;103.50;86.75;55.75
79038;PMS5003;68436;55.068;73.284;2023-05-10T00:38:40;105.00;87.67;58.00
79038;PMS5003;68436;55.068;73.284;2023-05-10T00:41:06;100.75;84.50;55.50
79038;PMS5003;68436;55.068;73.284;2023-05-10T00:43:34;99.00;83.00;56.00
79038;PMS5003;68436;55.068;73.284;2023-05-10T00:46:19;90.50;76.25;50.50
79038;PMS5003;68436;55.068;73.284;2023-05-10T00:48:45;94.00;80.00;53.00
79038;PMS5003;68436;55.068;73.284;2023-05-10T00:51:29;102.00;86.00;54.25
79038;PMS5003;68436;55.068;73.284;2023-05-10T00:53:56;103.50;87.00;58.00
79038;PMS5003;68436;55.068;73.284;2023-05-10T00:56:22;111.50;96.00;61.50
79038;PMS5003;68436;55.068;73.284;2023-05-10T00:58:50;116.00;99.00;64.00
79038;PMS5003;68436;55.068;73.284;2023-05-10T01:04:19;97.25;82.75;54.00
79038;PMS5003;68436;55.068;73.284;2023-05-10T01:06:51;144.50;114.00;69.50
79038;PMS5003;68436;55.068;73.284;2023-05-10T01:09:36;108.33;91.00;57.67
79038;PMS5003;68436;55.068;73.284;2023-05-10T01:12:02;124.50;97.75;60.00
79038;PMS5003;68436;55.068;73.284;2023-05-10T01:14:32;110.67;93.33;58.33
79038;PMS5003;68436;55.068;73.284;2023-05-10T01:16:59;108.50;92.75;59.00
79038;PMS5003;68436;55.068;73.284;2023-05-10T01:19:26;157.67;118.00;71.33
79038;PMS5003;68436;55.068;73.284;2023-05-10T01:24:45;108.67;90.33;57.00
79038;PMS5003;68436;55.068;73.284;2023-05-10T01:36:23;91.50;78.25;50.50
79038;PMS5003;68436;55.068;73.284;2023-05-10T01:39:24;106.00;90.00;56.67
79038;PMS5003;68436;55.068;73.284;2023-05-10T01:45:20;98.33;82.00;51.33
79038;PMS5003;68436;55.068;73.284;2023-05-10T01:48:16;133.25;102.00;60.25
79038;PMS5003;68436;55.068;73.284;2023-05-10T01:53:28;110.33;88.33;55.33
79038;PMS5003;68436;55.068;73.284;2023-05-10T01:55:55;111.50;89.75;54.00
79038;PMS5003;68436;55.068;73.284;2023-05-10T01:58:27;85.00;72.75;46.75
79038;PMS5003;68436;55.068;73.284;2023-05-10T02:03:39;123.25;100.75;63.50
79038;PMS5003;68436;55.068;73.284;2023-05-10T02:06:07;92.00;77.00;50.00
79038;PMS5003;68436;55.068;73.284;2023-05-10T02:08:34;95.33;80.00;50.00
79038;PMS5003;68436;55.068;73.284;2023-05-10T02:11:02;143.25;102.50;59.50
79038;PMS5003;68436;55.068;73.284;2023-05-10T02:13:29;97.00;84.00;56.00
79038;PMS5003;68436;55.068;73.284;2023-05-10T02:15:57;89.75;76.75;49.50
79038;PMS5003;68436;55.068;73.284;2023-05-10T02:18:23;98.00;82.67;53.00
79038;PMS5003;68436;55.068;73.284;2023-05-10T02:23:55;89.00;74.00;49.00
79038;PMS5003;68436;55.068;73.284;2023-05-10T02:35:13;77.67;64.67;42.00
79038;PMS5003;68436;55.068;73.284;2023-05-10T02:37:40;81.00;69.00;44.75
79038;PMS5003;68436;55.068;73.284;2023-05-10T02:40:08;83.33;69.33;43.67
79038;PMS5003;68436;55.068;73.284;2023-05-10T02:42:36;126.50;100.75;61.00
79038;PMS5003;68436;55.068;73.284;2023-05-10T02:45:05;76.67;63.33;40.33
79038;PMS5003;68436;55.068;73.284;2023-05-10T02:47:33;86.75;73.00;46.50
79038;PMS5003;68436;55.068;73.284;2023-05-10T02:49:59;89.00;73.00;46.50
79038;PMS5003;68436;55.068;73.284;2023-05-10T02:52:28;78.00;66.00;42.25
79038;PMS5003;68436;55.068;73.284;2023-05-10T02:54:55;83.00;67.00;42.67
79038;PMS5003;68436;55.068;73.284;2023-05-10T02:57:26;84.75;72.00;47.00
79038;PMS5003;68436;55.068;73.284;2023-05-10T02:59:53;72.00;59.00;37.00
79038;PMS5003;68436;55.068;73.284;2023-05-10T03:02:20;79.75;67.50;43.00
79038;PMS5003;68436;55.068;73.284;2023-05-10T03:05:05;82.33;69.00;44.00
79038;PMS5003;68436;55.068;73.284;2023-05-10T03:07:31;76.75;63.75;41.75
79038;PMS5003;68436;55.068;73.284;2023-05-10T03:09:58;84.67;69.33;42.00
79038;PMS5003;68436;55.068;73.284;2023-05-10T03:15:11;81.00;67.33;42.33
79038;PMS5003;68436;55.068;73.284;2023-05-10T03:20:25;66.00;53.00;35.00
79038;PMS5003;68436;55.068;73.284;2023-05-10T03:22:54;72.25;57.75;38.50
79038;PMS5003;68436;55.068;73.284;2023-05-10T03:25:21;74.33;61.67;39.67
79038;PMS5003;68436;55.068;73.284;2023-05-10T03:27:47;81.00;66.00;42.00
79038;PMS5003;68436;55.068;73.284;2023-05-10T03:33:04;73.00;58.25;37.25
79038;PMS5003;68436;55.068;73.284;2023-05-10T03:35:35;68.00;53.00;35.00
79038;PMS5003;68436;55.068;73.284;2023-05-10T03:38:02;91.75;75.00;47.00
79038;PMS5003;68436;55.068;73.284;2023-05-10T03:40:28;127.00;89.00;49.67
79038;PMS5003;68436;55.068;73.284;2023-05-10T03:43:02;69.75;54.00;35.75
79038;PMS5003;68436;55.068;73.284;2023-05-10T03:45:28;72.00;59.00;39.00
79038;PMS5003;68436;55.068;73.284;2023-05-10T03:51:01;92.00;74.50;48.25
79038;PMS5003;68436;55.068;73.284;2023-05-10T03:53:45;115.67;96.00;63.33
79038;PMS5003;68436;55.068;73.284;2023-05-10T03:56:12;126.00;106.00;63.00
79038;PMS5003;68436;55.068;73.284;2023-05-10T03:58:56;105.67;91.00;59.00
79038;PMS5003;68436;55.068;73.284;2023-05-10T04:01:23;115.75;97.25;60.75
79038;PMS5003;68436;55.068;73.284;2023-05-10T04:03:49;136.33;113.67;69.33
79038;PMS5003;68436;55.068;73.284;2023-05-10T04:06:15;60.00;48.00;31.00
79038;PMS5003;68436;55.068;73.284;2023-05-10T04:08:41;61.33;47.67;32.00
79038;PMS5003;68436;55.068;73.284;2023-05-10T04:11:25;75.75;59.50;36.75
79038;PMS5003;68436;55.068;73.284;2023-05-10T04:16:36;82.00;70.50;46.00
79038;PMS5003;68436;55.068;73.284;2023-05-10T04:19:02;65.33;51.33;34.00
79038;PMS5003;68436;55.068;73.284;2023-05-10T04:21:28;76.00;60.50;39.25
79038;PMS5003;68436;55.068;73.284;2023-05-10T04:23:54;70.67;55.00;37.00
79038;PMS5003;68436;55.068;73.284;2023-05-10T04:26:20;67.00;52.50;34.75
79038;PMS5003;68436;55.068;73.284;2023-05-10T04:28:47;86.50;72.00;47.00
79038;PMS5003;68436;55.068;73.284;2023-05-10T04:31:32;85.00;73.00;47.75
79038;PMS5003;68436;55.068;73.284;2023-05-10T04:33:58;112.00;95.00;60.00
79038;PMS5003;68436;55.068;73.284;2023-05-10T04:36:24;69.00;54.00;35.00
79038;PMS5003;68436;55.068;73.284;2023-05-10T04:38:50;58.00;47.00;30.00
79038;PMS5003;68436;55.068;73.284;2023-05-10T04:41:16;61.00;48.00;31.00
79038;PMS5003;68436;55.068;73.284;2023-05-10T04:43:42;64.00;49.67;32.33
79038;PMS5003;68436;55.068;73.284;2023-05-10T04:46:08;62.75;49.50;32.25
79038;PMS5003;68436;55.068;73.284;2023-05-10T04:48:34;71.00;58.33;37.67
79038;PMS5003;68436;55.068;73.284;2023-05-10T04:51:18;66.00;51.75;33.75
79038;PMS5003;68436;55.068;73.284;2023-05-10T04:53:44;57.00;45.00;29.00
79038;PMS5003;68436;55.068;73.284;2023-05-10T04:56:28;56.75;45.00;30.00
79038;PMS5003;68436;55.068;73.284;2023-05-10T04:58:54;60.25;47.50;30.75
79038;PMS5003;68436;55.068;73.284;2023-05-10T05:01:39;55.00;45.00;31.00
79038;PMS5003;68436;55.068;73.284;2023-05-10T05:04:10;61.25;49.00;31.00
79038;PMS5003;68436;55.068;73.284;2023-05-10T05:06:36;69.00;54.75;36.25
79038;PMS5003;68436;55.068;73.284;2023-05-10T05:12:05;69.50;52.75;34.25
79038;PMS5003;68436;55.068;73.284;2023-05-10T05:14:31;63.67;49.33;32.00
79038;PMS5003;68436;55.068;73.284;2023-05-10T05:16:57;73.00;58.50;38.00
79038;PMS5003;68436;55.068;73.284;2023-05-10T05:19:23;75.00;61.50;38.75
79038;PMS5003;68436;55.068;73.284;2023-05-10T05:21:49;60.00;48.00;31.00
79038;PMS5003;68436;55.068;73.284;2023-05-10T05:24:15;214.00;137.75;69.25
79038;PMS5003;68436;55.068;73.284;2023-05-10T05:26:41;68.00;53.00;34.00
79038;PMS5003;68436;55.068;73.284;2023-05-10T05:29:07;76.00;61.67;38.00
79038;PMS5003;68436;55.068;73.284;2023-05-10T05:31:33;56.00;45.00;30.00
79038;PMS5003;68436;55.068;73.284;2023-05-10T05:34:17;90.00;76.50;48.25
79038;PMS5003;68436;55.068;73.284;2023-05-10T05:36:43;58.25;46.50;30.00
79038;PMS5003;68436;55.068;73.284;2023-05-10T05:39:09;70.75;51.75;32.75
79038;PMS5003;68436;55.068;73.284;2023-05-10T05:41:54;77.00;63.25;41.75
79038;PMS5003;68436;55.068;73.284;2023-05-10T05:44:23;79.00;63.67;42.00
79038;PMS5003;68436;55.068;73.284;2023-05-10T05:46:50;72.00;59.00;39.00
79038;PMS5003;68436;55.068;73.284;2023-05-10T05:49:16;71.00;59.00;35.33
79038;PMS5003;68436;55.068;73.284;2023-05-10T05:51:42;52.00;42.50;28.25
79038;PMS5003;68436;55.068;73.284;2023-05-10T05:54:08;80.00;59.00;37.00
79038;PMS5003;68436;55.068;73.284;2023-05-10T05:56:35;51.00;42.00;28.00
79038;PMS5003;68436;55.068;73.284;2023-05-10T06:02:08;66.50;50.50;32.25
79038;PMS5003;68436;55.068;73.284;2023-05-10T06:04:53;64.00;51.00;33.00
79038;PMS5003;68436;55.068;73.284;2023-05-10T06:07:37;55.75;45.50;30.00
79038;PMS5003;68436;55.068;73.284;2023-05-10T06:10:03;81.33;58.00;34.00
79038;PMS5003;68436;55.068;73.284;2023-05-10T06:12:30;52.00;42.00;27.00
79038;PMS5003;68436;55.068;73.284;2023-05-10T06:14:56;146.00;92.67;45.67
79038;PMS5003;68436;55.068;73.284;2023-05-10T06:17:42;42.50;36.00;25.00
79038;PMS5003;68436;55.068;73.284;2023-05-10T06:20:09;48.00;39.67;26.00
79038;PMS5003;68436;55.068;73.284;2023-05-10T06:22:35;46.50;38.25;25.00
79038;PMS5003;68436;55.068;73.284;2023-05-10T06:25:01;47.67;38.67;25.33
79038;PMS5003;68436;55.068;73.284;2023-05-10T06:27:27;50.75;41.00;26.75
79038;PMS5003;68436;55.068;73.284;2023-05-10T06:29:53;44.00;36.00;24.00
79038;PMS5003;68436;55.068;73.284;2023-05-10T06:35:04;51.00;41.00;27.00
79038;PMS5003;68436;55.068;73.284;2023-05-10T06:37:30;46.50;37.75;26.00
79038;PMS5003;68436;55.068;73.284;2023-05-10T06:39:56;48.00;39.00;25.00
79038;PMS5003;68436;55.068;73.284;2023-05-10T06:42:41;56.75;45.50;30.00
79038;PMS5003;68436;55.068;73.284;2023-05-10T06:45:07;47.00;38.00;25.00
79038;PMS5003;68436;55.068;73.284;2023-05-10T06:47:34;51.00;41.00;27.00
79038;PMS5003;68436;55.068;73.284;2023-05-10T06:50:00;49.33;40.67;26.67
79038;PMS5003;68436;55.068;73.284;2023-05-10T06:52:45;48.00;40.00;26.00
79038;PMS5003;68436;55.068;73.284;2023-05-10T06:57:56;43.00;36.00;24.00
79038;PMS5003;68436;55.068;73.284;2023-05-10T07:00:22;45.00;38.00;25.00
79038;PMS5003;68436;55.068;73.284;2023-05-10T07:02:48;48.50;40.25;26.75
79038;PMS5003;68436;55.068;73.284;2023-05-10T07:05:33;42.75;35.00;24.00
79038;PMS5003;68436;55.068;73.284;2023-05-10T07:08:17;45.00;37.00;24.00
79038;PMS5003;68436;55.068;73.284;2023-05-10T07:10:43;47.00;38.00;24.00
79038;PMS5003;68436;55.068;73.284;2023-05-10T07:13:16;64.00;50.00;33.00
79038;PMS5003;68436;55.068;73.284;2023-05-10T07:15:42;73.25;57.50;36.50
79038;PMS5003;68436;55.068;73.284;2023-05-10T07:18:16;44.00;37.00;24.00
79038;PMS5003;68436;55.068;73.284;2023-05-10T07:20:42;47.00;39.00;26.75
79038;PMS5003;68436;55.068;73.284;2023-05-10T07:23:16;50.00;42.00;29.00
79038;PMS5003;68436;55.068;73.284;2023-05-10T07:25:49;45.75;38.50;26.00
79038;PMS5003;68436;55.068;73.284;2023-05-10T07:28:17;60.00;48.00;31.00
79038;PMS5003;68436;55.068;73.284;2023-05-10T07:30:43;55.75;42.00;27.00
79038;PMS5003;68436;55.068;73.284;2023-05-10T07:33:16;45.50;38.00;26.00
79038;PMS5003;68436;55.068;73.284;2023-05-10T07:35:42;48.00;40.00;26.00
79038;PMS5003;68436;55.068;73.284;2023-05-10T07:38:27;44.00;36.50;25.00
79038;PMS5003;68436;55.068;73.284;2023-05-10T07:40:53;46.00;38.00;25.50
79038;PMS5003;68436;55.068;73.284;2023-05-10T07:43:19;44.33;36.67;25.00
79038;PMS5003;68436;55.068;73.284;2023-05-10T07:45:45;44.25;37.00;25.50
79038;PMS5003;68436;55.068;73.284;2023-05-10T07:48:16;46.00;38.00;26.00
79038;PMS5003;68436;55.068;73.284;2023-05-10T07:50:45;48.25;40.00;27.00
79038;PMS5003;68436;55.068;73.284;2023-05-10T07:53:16;58.50;44.50;27.00
79038;PMS5003;68436;55.068;73.284;2023-05-10T07:55:44;55.00;44.00;28.00
79038;PMS5003;68436;55.068;73.284;2023-05-10T07:58:16;58.00;46.00;30.00
79038;PMS5003;68436;55.068;73.284;2023-05-10T08:00:42;52.00;43.00;28.25
79038;PMS5003;68436;55.068;73.284;2023-05-10T08:03:16;50.00;41.00;28.00
79038;PMS5003;68436;55.068;73.284;2023-05-10T08:06:01;53.75;43.00;29.00
79038;PMS5003;68436;55.068;73.284;2023-05-10T08:08:27;66.50;48.75;30.75
79038;PMS5003;68436;55.068;73.284;2023-05-10T08:10:53;53.00;43.00;29.00
79038;PMS5003;68436;55.068;73.284;2023-05-10T08:13:19;56.33;45.33;30.67
79038;PMS5003;68436;55.068;73.284;2023-05-10T08:15:45;52.00;42.00;28.50
79038;PMS5003;68436;55.068;73.284;2023-05-10T08:18:16;54.00;43.00;29.00
79038;PMS5003;68436;55.068;73.284;2023-05-10T08:20:42;61.75;46.50;30.00
79038;PMS5003;68436;55.068;73.284;2023-05-10T08:23:16;50.00;40.00;27.00
79038;PMS5003;68436;55.068;73.284;2023-05-10T08:26:01;55.25;43.50;28.00
79038;PMS5003;68436;55.068;73.284;2023-05-10T08:28:45;48.00;39.00;25.33
79038;PMS5003;68436;55.068;73.284;2023-05-10T08:31:11;108.75;75.25;43.25
79038;PMS5003;68436;55.068;73.284;2023-05-10T08:33:56;51.25;42.00;28.50
79038;PMS5003;68436;55.068;73.284;2023-05-10T08:36:22;50.75;41.25;27.25
79038;PMS5003;68436;55.068;73.284;2023-05-10T08:39:08;51.00;42.00;27.00
79038;PMS5003;68436;55.068;73.284;2023-05-10T08:41:34;50.00;40.75;28.00
79038;PMS5003;68436;55.068;73.284;2023-05-10T08:44:21;59.00;47.00;31.00
79038;PMS5003;68436;55.068;73.284;2023-05-10T08:46:47;54.00;44.00;29.00
79038;PMS5003;68436;55.068;73.284;2023-05-10T08:49:16;75.75;62.75;40.50
79038;PMS5003;68436;55.068;73.284;2023-05-10T08:51:48;58.00;45.00;29.75
79038;PMS5003;68436;55.068;73.284;2023-05-10T08:54:15;73.00;60.00;39.00
79038;PMS5003;68436;55.068;73.284;2023-05-10T08:56:41;44.00;37.00;26.00
79038;PMS5003;68436;55.068;73.284;2023-05-10T08:59:07;54.00;44.33;29.00
79038;PMS5003;68436;55.068;73.284;2023-05-10T09:01:34;50.50;40.00;26.50
79038;PMS5003;68436;55.068;73.284;2023-05-10T09:04:01;45.00;37.00;25.00
79038;PMS5003;68436;55.068;73.284;2023-05-10T09:06:27;54.50;42.50;28.50
79038;PMS5003;68436;55.068;73.284;2023-05-10T09:08:54;59.67;49.00;32.00
79038;PMS5003;68436;55.068;73.284;2023-05-10T09:11:20;77.00;65.25;42.50
79038;PMS5003;68436;55.068;73.284;2023-05-10T09:14:05;75.00;63.00;39.00
79038;PMS5003;68436;55.068;73.284;2023-05-10T09:19:35;58.00;43.33;26.00
79038;PMS5003;68436;55.068;73.284;2023-05-10T09:22:20;46.00;39.00;26.00
79038;PMS5003;68436;55.068;73.284;2023-05-10T09:24:46;45.75;38.25;26.00
79038;PMS5003;68436;55.068;73.284;2023-05-10T09:27:12;56.00;44.00;29.00
79038;PMS5003;68436;55.068;73.284;2023-05-10T09:29:39;45.75;37.00;24.00
79038;PMS5003;68436;55.068;73.284;2023-05-10T09:32:39;44.25;37.25;24.50
79038;PMS5003;68436;55.068;73.284;2023-05-10T09:35:13;44.00;36.00;24.00
79038;PMS5003;68436;55.068;73.284;2023-05-10T09:38:05;51.00;40.00;27.00
79038;PMS5003;68436;55.068;73.284;2023-05-10T09:40:31;53.67;44.00;29.00
79038;PMS5003;68436;55.068;73.284;2023-05-10T09:43:01;55.25;44.50;29.25
79038;PMS5003;68436;55.068;73.284;2023-05-10T09:48:30;59.00;46.00;29.00
79038;PMS5003;68436;55.068;73.284;2023-05-10T09:51:19;45.25;37.25;25.25
79038;PMS5003;68436;55.068;73.284;2023-05-10T09:53:45;57.33;46.33;29.33
79038;PMS5003;68436;55.068;73.284;2023-05-10T09:56:11;58.00;47.00;31.00
79038;PMS5003;68436;55.068;73.284;2023-05-10T09:58:37;54.67;43.33;28.00
79038;PMS5003;68436;55.068;73.284;2023-05-10T10:01:03;47.25;39.00;26.75
79038;PMS5003;68436;55.068;73.284;2023-05-10T10:03:29;50.00;40.00;26.00
79038;PMS5003;68436;55.068;73.284;2023-05-10T10:05:56;36.25;32.00;21.25
79038;PMS5003;68436;55.068;73.284;2023-05-10T10:08:23;83.75;60.75;35.00
79038;PMS5003;68436;55.068;73.284;2023-05-10T10:13:34;46.00;38.00;24.33
79038;PMS5003;68436;55.068;73.284;2023-05-10T10:16:00;60.50;48.50;32.00
79038;PMS5003;68436;55.068;73.284;2023-05-10T10:18:27;55.00;44.67;29.67
79038;PMS5003;68436;55.068;73.284;2023-05-10T10:20:55;38.50;32.00;22.00
79038;PMS5003;68436;55.068;73.284;2023-05-10T10:23:40;39.00;33.00;21.75
79038;PMS5003;68436;55.068;73.284;2023-05-10T10:26:24;58.25;46.50;29.50
79038;PMS5003;68436;55.068;73.284;2023-05-10T10:31:40;40.00;32.00;21.00
79038;PMS5003;68436;55.068;73.284;2023-05-10T10:34:17;42.00;35.00;23.00
79038;PMS5003;68436;55.068;73.284;2023-05-10T10:36:47;52.00;42.00;28.00
79038;PMS5003;68436;55.068;73.284;2023-05-10T10:39:13;47.00;37.00;24.00
79038;PMS5003;68436;55.068;73.284;2023-05-10T10:41:40;48.00;38.50;26.00
79038;PMS5003;68436;55.068;73.284;2023-05-10T10:49:38;36.00;31.50;20.50
79038;PMS5003;68436;55.068;73.284;2023-05-10T10:54:40;43.00;36.00;23.00
79038;PMS5003;68436;55.068;73.284;2023-05-10T10:57:13;39.75;33.00;22.00
79038;PMS5003;68436;55.068;73.284;2023-05-10T10:59:43;39.67;33.33;22.00
79038;PMS5003;68436;55.068;73.284;2023-05-10T11:02:46;33.00;28.00;18.50
79038;PMS5003;68436;55.068;73.284;2023-05-10T11:07:59;37.75;31.00;22.00
79038;PMS5003;68436;55.068;73.284;2023-05-10T11:16:12;46.00;37.00;26.00
79038;PMS5003;68436;55.068;73.284;2023-05-10T11:19:02;37.75;32.75;23.00
79038;PMS5003;68436;55.068;73.284;2023-05-10T11:26:59;43.00;35.50;23.00
79038;PMS5003;68436;55.068;73.284;2023-05-10T11:29:25;36.33;31.00;21.00
79038;PMS5003;68436;55.068;73.284;2023-05-10T11:31:52;43.00;33.00;22.00
79038;PMS5003;68436;55.068;73.284;2023-05-10T11:34:25;37.00;31.00;22.00
79038;PMS5003;68436;55.068;73.284;2023-05-10T11:36:52;34.00;29.00;19.75
79038;PMS5003;68436;55.068;73.284;2023-05-10T11:42:03;38.50;31.00;20.00
79038;PMS5003;68436;55.068;73.284;2023-05-10T11:44:48;35.00;29.00;19.00
79038;PMS5003;68436;55.068;73.284;2023-05-10T11:47:14;35.00;29.00;20.00
79038;PMS5003;68436;55.068;73.284;2023-05-10T11:49:59;37.33;30.00;19.00
79038;PMS5003;68436;55.068;73.284;2023-05-10T11:52:44;35.00;29.00;20.00
79038;PMS5003;68436;55.068;73.284;2023-05-10T11:55:10;33.00;28.00;19.00
79038;PMS5003;68436;55.068;73.284;2023-05-10T11:57:40;32.50;28.00;19.75
79038;PMS5003;68436;55.068;73.284;2023-05-10T12:00:08;34.00;28.00;20.00
79038;PMS5003;68436;55.068;73.284;2023-05-10T12:02:52;32.00;27.00;19.00
79038;PMS5003;68436;55.068;73.284;2023-05-10T12:05:19;37.67;31.00;20.00
79038;PMS5003;68436;55.068;73.284;2023-05-10T12:07:45;37.00;30.00;19.00
79038;PMS5003;68436;55.068;73.284;2023-05-10T12:10:11;33.33;28.67;20.00
79038;PMS5003;68436;55.068;73.284;2023-05-10T12:12:51;37.00;30.00;19.00
79038;PMS5003;68436;55.068;73.284;2023-05-10T12:15:20;41.00;34.00;22.67
79038;PMS5003;68436;55.068;73.284;2023-05-10T12:17:47;34.00;29.00;20.00
79038;PMS5003;68436;55.068;73.284;2023-05-10T12:23:04;37.50;30.50;20.75
79038;PMS5003;68436;55.068;73.284;2023-05-10T12:25:32;36.00;29.00;19.00
79038;PMS5003;68436;55.068;73.284;2023-05-10T12:27:59;30.75;25.50;17.00
79038;PMS5003;68436;55.068;73.284;2023-05-10T12:30:29;31.00;26.33;19.00
79038;PMS5003;68436;55.068;73.284;2023-05-10T12:33:02;38.75;30.50;18.50
79038;PMS5003;68436;55.068;73.284;2023-05-10T12:35:32;30.00;25.00;16.33
79038;PMS5003;68436;55.068;73.284;2023-05-10T12:37:58;32.00;27.00;18.25
79038;PMS5003;68436;55.068;73.284;2023-05-10T12:40:24;29.50;25.00;16.75
79038;PMS5003;68436;55.068;73.284;2023-05-10T12:42:50;33.00;26.00;17.25
79038;PMS5003;68436;55.068;73.284;2023-05-10T12:45:17;42.00;35.25;23.50
79038;PMS5003;68436;55.068;73.284;2023-05-10T12:48:01;32.00;26.00;17.00
79038;PMS5003;68436;55.068;73.284;2023-05-10T12:50:27;37.50;30.50;19.50
79038;PMS5003;68436;55.068;73.284;2023-05-10T12:52:53;41.00;32.75;20.25
79038;PMS5003;68436;55.068;73.284;2023-05-10T12:55:19;35.00;28.00;18.00
79038;PMS5003;68436;55.068;73.284;2023-05-10T12:57:45;37.00;28.50;18.25
79038;PMS5003;68436;55.068;73.284;2023-05-10T13:00:11;37.00;30.00;19.50
79038;PMS5003;68436;55.068;73.284;2023-05-10T13:05:22;29.67;25.00;17.00
79038;PMS5003;68436;55.068;73.284;2023-05-10T13:08:06;32.50;27.00;17.25
79038;PMS5003;68436;55.068;73.284;2023-05-10T13:10:51;29.00;25.00;16.00
79038;PMS5003;68436;55.068;73.284;2023-05-10T13:13:17;29.00;25.00;16.00
79038;PMS5003;68436;55.068;73.284;2023-05-10T13:15:43;27.00;24.00;16.00
79038;PMS5003;68436;55.068;73.284;2023-05-10T13:21:01;24.50;21.75;15.00
79038;PMS5003;68436;55.068;73.284;2023-05-10T13:23:29;30.25;26.00;16.00
79038;PMS5003;68436;55.068;73.284;2023-05-10T13:25:55;29.50;25.00;16.00
79038;PMS5003;68436;55.068;73.284;2023-05-10T13:28:21;29.20;25.60;17.60
79038;PMS5003;68436;55.068;73.284;2023-05-10T13:30:47;29.50;25.00;17.00
79038;PMS5003;68436;55.068;73.284;2023-05-10T13:33:16;25.50;23.00;16.00
79038;PMS5003;68436;55.068;73.284;2023-05-10T13:35:43;28.50;25.00;16.00
79038;PMS5003;68436;55.068;73.284;2023-05-10T13:38:16;35.00;29.00;19.00
79038;PMS5003;68436;55.068;73.284;2023-05-10T13:40:42;36.00;28.00;18.00
79038;PMS5003;68436;55.068;73.284;2023-05-10T13:43:29;49.75;41.00;27.00
79038;PMS5003;68436;55.068;73.284;2023-05-10T13:46:13;49.25;38.50;25.00
79038;PMS5003;68436;55.068;73.284;2023-05-10T13:48:39;55.00;43.50;28.25
79038;PMS5003;68436;55.068;73.284;2023-05-10T13:51:05;50.75;40.50;26.25
79038;PMS5003;68436;55.068;73.284;2023-05-10T13:53:31;62.75;48.00;30.00
79038;PMS5003;68436;55.068;73.284;2023-05-10T13:55:57;46.00;36.75;24.00
79038;PMS5003;68436;55.068;73.284;2023-05-10T13:58:23;42.00;34.00;22.00
79038;PMS5003;68436;55.068;73.284;2023-05-10T14:00:49;53.75;42.25;26.75
79038;PMS5003;68436;55.068;73.284;2023-05-10T14:03:16;52.50;39.00;25.00
79038;PMS5003;68436;55.068;73.284;2023-05-10T14:05:42;50.00;40.00;25.00
79038;PMS5003;68436;55.068;73.284;2023-05-10T14:08:16;38.00;30.00;20.00
79038;PMS5003;68436;55.068;73.284;2023-05-10T14:10:43;50.00;40.00;25.25
79038;PMS5003;68436;55.068;73.284;2023-05-10T14:13:27;46.00;37.00;23.00
79038;PMS5003;68436;55.068;73.284;2023-05-10T14:18:40;45.25;36.00;22.75
79038;PMS5003;68436;55.068;73.284;2023-05-10T14:21:06;42.25;35.00;23.00
79038;PMS5003;68436;55.068;73.284;2023-05-10T14:23:32;36.00;30.50;20.00
79038;PMS5003;68436;55.068;73.284;2023-05-10T14:25:58;37.00;30.00;19.00
79038;PMS5003;68436;55.068;73.284;2023-05-10T14:28:24;37.00;30.50;19.25
79038;PMS5003;68436;55.068;73.284;2023-05-10T14:30:50;43.75;35.75;24.00
79038;PMS5003;68436;55.068;73.284;2023-05-10T14:33:16;55.00;44.00;28.00
79038;PMS5003;68436;55.068;73.284;2023-05-10T14:35:42;20.00;16.25;11.25
79038;PMS5003;68436;55.068;73.284;2023-05-10T14:38:27;15.50;14.75;11.00
79038;PMS5003;68436;55.068;73.284;2023-05-10T14:40:53;22.00;18.00;12.00
79038;PMS5003;68436;55.068;73.284;2023-05-10T14:43:19;22.33;20.00;13.00
79038;PMS5003;68436;55.068;73.284;2023-05-10T14:48:31;16.00;14.00;9.50
79038;PMS5003;68436;55.068;73.284;2023-05-10T14:50:57;26.50;23.25;15.50
79038;PMS5003;68436;55.068;73.284;2023-05-10T14:53:23;33.33;28.67;19.00
79038;PMS5003;68436;55.068;73.284;2023-05-10T14:55:49;24.50;22.25;15.25
79038;PMS5003;68436;55.068;73.284;2023-05-10T14:58:16;29.50;26.00;19.00
79038;PMS5003;68436;55.068;73.284;2023-05-10T15:01:01;22.50;20.25;13.75
79038;PMS5003;68436;55.068;73.284;2023-05-10T15:03:28;39.67;32.67;20.67
79038;PMS5003;68436;55.068;73.284;2023-05-10T15:05:54;41.25;34.00;22.00
79038;PMS5003;68436;55.068;73.284;2023-05-10T15:08:21;68.33;53.00;34.00
79038;PMS5003;68436;55.068;73.284;2023-05-10T15:10:47;78.75;64.75;40.00
79038;PMS5003;68436;55.068;73.284;2023-05-10T15:13:16;60.00;48.00;31.00
79038;PMS5003;68436;55.068;73.284;2023-05-10T15:15:42;49.50;39.25;25.00
79038;PMS5003;68436;55.068;73.284;2023-05-10T15:18:16;33.00;28.00;18.00
79038;PMS5003;68436;55.068;73.284;2023-05-10T15:23:27;39.50;33.00;22.00
79038;PMS5003;68436;55.068;73.284;2023-05-10T15:25:54;43.00;34.75;23.50
79038;PMS5003;68436;55.068;73.284;2023-05-10T15:28:21;48.20;37.60;24.80
79038;PMS5003;68436;55.068;73.284;2023-05-10T15:31:05;44.75;35.75;23.00
79038;PMS5003;68436;55.068;73.284;2023-05-10T15:36:35;38.25;31.00;20.50
79038;PMS5003;68436;55.068;73.284;2023-05-10T15:39:01;28.00;23.00;16.00
79038;PMS5003;68436;55.068;73.284;2023-05-10T15:41:27;32.50;27.50;18.50
79038;PMS5003;68436;55.068;73.284;2023-05-10T15:44:12;32.00;28.00;19.00
79038;PMS5003;68436;55.068;73.284;2023-05-10T15:46:38;37.25;30.00;20.00
79038;PMS5003;68436;55.068;73.284;2023-05-10T15:52:07;31.75;27.00;18.00